createdAt,value
2023-01-21T00:00:05.817Z,20.08
2023-01-21T00:02:32.474Z,16.85
2023-01-21T00:04:59.108Z,16.50
2023-01-21T00:07:25.996Z,19.00
2023-01-21T00:09:52.691Z,16.83
2023-01-21T00:12:19.312Z,17.45
2023-01-21T00:14:45.947Z,17.33
2023-01-21T00:17:12.566Z,16.15
2023-01-21T00:19:39.151Z,19.83
2023-01-21T00:22:05.855Z,18.55
2023-01-21T00:24:32.441Z,15.43
2023-01-21T00:26:59.104Z,19.20
2023-01-21T00:29:26.440Z,16.48
2023-01-21T00:31:53.213Z,16.20
2023-01-21T00:36:46.416Z,16.73
2023-01-21T00:39:13.056Z,17.60
2023-01-21T00:41:39.708Z,18.67
2023-01-21T00:44:06.363Z,21.65
2023-01-21T00:46:33.358Z,17.42
2023-01-21T00:49:00.286Z,21.70
2023-01-21T00:51:27.762Z,17.77
2023-01-21T00:53:54.566Z,20.73
2023-01-21T00:58:48.132Z,20.15
2023-01-21T01:03:43.368Z,18.55
2023-01-21T01:06:23.592Z,17.92
2023-01-21T01:08:50.912Z,18.23
2023-01-21T01:11:18.631Z,18.58
2023-01-21T01:13:45.466Z,19.27
2023-01-21T01:16:15.367Z,17.08
2023-01-21T01:18:42.476Z,14.50
2023-01-21T01:21:13.023Z,17.85
2023-01-21T01:23:39.855Z,16.35
2023-01-21T01:28:34.981Z,15.43
2023-01-21T01:31:04.932Z,20.75
2023-01-21T01:33:31.693Z,18.35
2023-01-21T01:36:06.837Z,20.75
2023-01-21T01:38:34.875Z,17.90
2023-01-21T01:41:01.887Z,13.25
2023-01-21T01:43:50.444Z,20.77
2023-01-21T01:46:17.191Z,17.40
2023-01-21T01:51:15.071Z,16.88
2023-01-21T01:53:44.189Z,12.43
2023-01-21T01:56:11.328Z,17.75
2023-01-21T01:58:38.462Z,14.30
2023-01-21T02:01:05.558Z,18.27
2023-01-21T02:03:45.482Z,16.63
2023-01-21T02:06:13.827Z,19.08
2023-01-21T02:08:41.108Z,17.77
2023-01-21T02:11:16.551Z,12.07
2023-01-21T02:13:47.690Z,15.93
2023-01-21T02:16:29.435Z,15.63
2023-01-21T02:19:25.866Z,16.63
2023-01-21T02:22:21.691Z,17.50
2023-01-21T02:25:52.559Z,15.18
2023-01-21T02:28:45.047Z,16.83
2023-01-21T02:31:31.639Z,14.02
2023-01-21T02:34:52.326Z,17.33
2023-01-21T02:37:34.296Z,13.82
2023-01-21T02:40:23.121Z,15.05
2023-01-21T02:43:07.277Z,15.63
2023-01-21T02:45:44.050Z,18.10
2023-01-21T02:48:32.926Z,14.82
2023-01-21T02:50:59.718Z,15.73
2023-01-21T02:55:55.681Z,17.48
2023-01-21T02:58:28.239Z,18.73
2023-01-21T03:01:12.020Z,15.07
2023-01-21T03:04:12.483Z,19.52
2023-01-21T03:06:45.236Z,15.18
2023-01-21T03:09:26.808Z,14.57
2023-01-21T03:12:29.681Z,21.98
2023-01-21T03:15:46.155Z,19.02
2023-01-21T03:18:24.223Z,13.52
2023-01-21T03:20:58.779Z,16.77
2023-01-21T03:23:38.708Z,16.77
2023-01-21T03:26:08.582Z,17.08
2023-01-21T03:28:42.531Z,18.85
2023-01-21T03:31:15.229Z,19.23
2023-01-21T03:33:46.889Z,13.88
2023-01-21T03:36:24.883Z,17.58
2023-01-21T03:38:53.180Z,17.42
2023-01-21T03:41:33.513Z,19.73
2023-01-21T03:44:00.721Z,12.80
2023-01-21T03:46:31.953Z,15.48
2023-01-21T03:49:14.881Z,17.20
2023-01-21T03:51:52.849Z,17.98
2023-01-21T03:54:19.538Z,16.27
2023-01-21T03:56:46.188Z,20.35
2023-01-21T03:59:12.846Z,15.00
2023-01-21T04:01:40.445Z,24.33
2023-01-21T04:04:08.508Z,17.02
2023-01-21T04:06:36.736Z,19.02
2023-01-21T04:09:07.476Z,24.02
2023-01-21T04:11:34.344Z,16.27
2023-01-21T04:14:01.372Z,17.40
2023-01-21T04:16:28.171Z,16.48
2023-01-21T04:18:54.891Z,13.50
2023-01-21T04:21:21.673Z,15.98
2023-01-21T04:23:48.308Z,17.25
2023-01-21T04:26:16.386Z,23.13
2023-01-21T04:28:43.149Z,18.25
2023-01-21T04:33:36.488Z,17.15
2023-01-21T04:36:03.212Z,19.45
2023-01-21T04:38:29.952Z,20.63
2023-01-21T04:40:56.643Z,20.33
2023-01-21T04:43:23.212Z,18.98
2023-01-21T04:45:50.293Z,25.20
2023-01-21T04:48:17.575Z,21.98
2023-01-21T04:50:45.730Z,21.00
2023-01-21T04:53:12.384Z,23.05
2023-01-21T04:55:38.998Z,22.23
2023-01-21T04:58:05.600Z,21.48
2023-01-21T05:00:32.269Z,19.27
2023-01-21T05:02:58.908Z,19.05
2023-01-21T05:05:25.538Z,23.15
2023-01-21T05:07:53.756Z,21.52
2023-01-21T05:10:20.726Z,19.38
2023-01-21T05:12:48.442Z,19.13
2023-01-21T05:15:15.171Z,18.08
2023-01-21T05:20:09.070Z,18.85
2023-01-21T05:22:35.651Z,20.73
2023-01-21T05:25:02.335Z,20.52
2023-01-21T05:29:56.900Z,20.10
2023-01-21T05:32:27.007Z,18.05
2023-01-21T05:34:53.657Z,23.75
2023-01-21T05:37:20.371Z,18.88
2023-01-21T05:39:46.974Z,20.40
2023-01-21T05:42:13.647Z,26.77
2023-01-21T05:44:40.256Z,19.30
2023-01-21T05:47:08.608Z,19.25
2023-01-21T05:49:35.996Z,18.65
2023-01-21T05:52:02.676Z,21.25
2023-01-21T05:54:29.487Z,16.67
2023-01-21T05:59:22.666Z,16.75
2023-01-21T06:01:49.301Z,19.23
2023-01-21T06:04:15.953Z,16.88
2023-01-21T06:06:42.572Z,22.23
2023-01-21T06:09:09.640Z,18.73
2023-01-21T06:11:36.261Z,20.73
2023-01-21T06:14:02.960Z,20.50
2023-01-21T06:18:56.068Z,23.13
2023-01-21T06:21:22.689Z,21.75
2023-01-21T06:23:49.319Z,23.52
2023-01-21T06:26:16.015Z,19.40
2023-01-21T06:31:09.234Z,23.85
2023-01-21T06:36:02.518Z,24.85
2023-01-21T06:40:55.889Z,21.77
2023-01-21T06:43:22.568Z,21.05
2023-01-21T06:48:15.764Z,20.95
2023-01-21T06:53:08.977Z,17.98
2023-01-21T06:58:02.219Z,20.30
2023-01-21T07:00:28.863Z,27.83
2023-01-21T07:05:26.211Z,21.00
2023-01-21T07:07:57.237Z,21.98
2023-01-21T07:10:24.594Z,22.52
2023-01-21T07:12:51.615Z,21.13
2023-01-21T07:15:18.537Z,19.38
2023-01-21T07:17:45.411Z,25.33
2023-01-21T07:22:41.593Z,20.73
2023-01-21T07:27:35.018Z,23.95
2023-01-21T07:30:02.992Z,21.02
2023-01-21T07:32:29.617Z,22.60
2023-01-21T07:34:56.303Z,22.45
2023-01-21T07:39:49.527Z,24.25
2023-01-21T07:44:42.818Z,21.70
2023-01-21T07:47:10.440Z,25.05
2023-01-21T07:49:37.504Z,22.00
2023-01-21T07:52:04.180Z,26.73
2023-01-21T07:56:57.484Z,24.30
2023-01-21T08:01:50.831Z,17.15
2023-01-21T08:04:17.499Z,22.42
2023-01-21T08:06:44.172Z,25.60
2023-01-21T08:11:37.550Z,23.90
2023-01-21T08:16:30.770Z,18.77
2023-01-21T08:21:25.289Z,19.85
2023-01-21T08:23:51.912Z,23.55
2023-01-21T08:26:19.041Z,22.05
2023-01-21T08:28:45.706Z,18.73
2023-01-21T08:33:40.048Z,21.63
2023-01-21T08:36:08.192Z,23.48
2023-01-21T08:38:35.218Z,22.80
2023-01-21T08:41:01.997Z,23.25
2023-01-21T08:43:28.737Z,20.20
2023-01-21T08:45:57.157Z,18.13
2023-01-21T08:48:23.968Z,20.58
2023-01-21T08:50:50.708Z,17.67
2023-01-21T08:53:17.431Z,22.77
2023-01-21T08:58:10.843Z,17.77
2023-01-21T09:03:04.259Z,22.27
2023-01-21T09:05:30.905Z,19.13
2023-01-21T09:10:43.850Z,20.63
2023-01-21T09:13:11.161Z,21.63
2023-01-21T09:15:42.431Z,16.58
2023-01-21T09:18:09.492Z,18.33
2023-01-21T09:20:36.944Z,19.13
2023-01-21T09:23:24.001Z,17.95
2023-01-21T09:25:51.656Z,16.55
2023-01-21T09:28:19.226Z,20.95
2023-01-21T09:30:46.261Z,20.70
2023-01-21T09:33:14.782Z,20.48
2023-01-21T09:35:41.938Z,22.15
2023-01-21T09:38:08.685Z,21.65
2023-01-21T09:40:35.881Z,23.58
2023-01-21T09:43:13.695Z,19.88
2023-01-21T09:45:42.247Z,21.33
2023-01-21T09:48:12.371Z,22.73
2023-01-21T09:50:41.196Z,19.15
2023-01-21T09:53:29.329Z,15.38
2023-01-21T09:56:00.999Z,17.08
2023-01-21T09:58:46.613Z,16.40
2023-01-21T10:04:01.144Z,14.77
2023-01-21T10:06:35.125Z,14.45
2023-01-21T10:09:13.370Z,15.00
2023-01-21T10:12:12.617Z,15.98
2023-01-21T10:14:57.749Z,14.63
2023-01-21T10:17:39.503Z,12.85
2023-01-21T10:20:19.616Z,12.18
2023-01-21T10:22:56.720Z,13.05
2023-01-21T10:25:32.788Z,10.77
2023-01-21T10:28:19.405Z,15.15
2023-01-21T10:30:56.706Z,13.07
2023-01-21T10:33:25.792Z,13.02
2023-01-21T10:36:13.746Z,11.82
2023-01-21T10:38:44.917Z,13.75
2023-01-21T10:41:30.480Z,12.45
2023-01-21T10:44:14.501Z,12.65
2023-01-21T10:46:54.850Z,9.88
2023-01-21T10:49:29.463Z,12.45
2023-01-21T10:52:07.344Z,11.20
2023-01-21T10:54:49.176Z,12.95
2023-01-21T10:57:26.139Z,11.23
2023-01-21T10:59:53.786Z,9.70
2023-01-21T11:02:33.469Z,11.05
2023-01-21T11:05:04.925Z,10.02
2023-01-21T11:07:39.812Z,9.88
2023-01-21T11:10:07.513Z,11.23
2023-01-21T11:12:34.208Z,12.23
2023-01-21T11:15:17.798Z,9.43
2023-01-21T11:17:47.411Z,8.70
2023-01-21T11:20:39.462Z,10.15
2023-01-21T11:23:07.503Z,11.13
2023-01-21T11:25:38.719Z,9.88
2023-01-21T11:28:05.883Z,12.05
2023-01-21T11:30:49.586Z,10.73
2023-01-21T11:33:26.498Z,10.82
2023-01-21T11:35:55.182Z,14.15
2023-01-21T11:38:37.718Z,12.05
2023-01-21T11:41:11.168Z,11.60
2023-01-21T11:43:40.991Z,12.38
2023-01-21T11:46:42.226Z,13.32
2023-01-21T11:49:08.784Z,10.60
2023-01-21T11:54:13.704Z,13.77
2023-01-21T11:56:45.075Z,13.10
2023-01-21T11:59:34.329Z,13.45
2023-01-21T12:02:12.516Z,14.57
2023-01-21T12:04:46.285Z,13.52
2023-01-21T12:07:22.722Z,13.65
2023-01-21T12:10:02.442Z,13.07
2023-01-21T12:12:47.490Z,13.48
2023-01-21T12:15:46.937Z,14.40
2023-01-21T12:18:16.371Z,15.10
2023-01-21T12:21:05.452Z,13.82
2023-01-21T12:23:41.145Z,12.05
2023-01-21T12:26:45.726Z,12.35
2023-01-21T12:29:39.846Z,15.63
2023-01-21T12:32:25.147Z,13.05
2023-01-21T12:34:57.336Z,12.38
2023-01-21T12:37:37.741Z,12.25
2023-01-21T12:40:20.219Z,12.32
2023-01-21T12:42:54.003Z,8.68
2023-01-21T12:45:26.924Z,12.70
2023-01-21T12:50:32.681Z,12.18
2023-01-21T12:53:19.024Z,11.10
2023-01-21T12:55:55.021Z,11.75
2023-01-21T12:58:25.112Z,13.82
2023-01-21T13:00:54.071Z,11.90
2023-01-21T13:03:58.429Z,11.82
2023-01-21T13:06:54.233Z,13.02
2023-01-21T13:09:52.857Z,13.13
2023-01-21T13:14:55.067Z,15.07
2023-01-21T13:17:25.020Z,15.50
2023-01-21T13:19:51.608Z,12.77
2023-01-21T13:25:33.461Z,10.13
2023-01-21T13:28:18.153Z,11.93
2023-01-21T13:31:10.646Z,13.88
2023-01-21T13:34:07.909Z,11.27
2023-01-21T13:36:55.635Z,14.63
2023-01-21T13:39:42.505Z,12.98
2023-01-21T13:42:36.889Z,13.98
2023-01-21T13:45:07.405Z,13.43
2023-01-21T13:48:00.310Z,11.52
2023-01-21T13:51:08.975Z,12.95
2023-01-21T13:53:57.256Z,14.93
2023-01-21T13:56:46.457Z,11.38
2023-01-21T13:59:28.327Z,15.50
2023-01-21T14:02:42.444Z,15.88
2023-01-21T14:05:20.435Z,12.23
2023-01-21T14:07:57.543Z,14.98
2023-01-21T14:10:38.015Z,15.95
2023-01-21T14:13:29.310Z,11.45
2023-01-21T14:16:14.698Z,11.48
2023-01-21T14:19:05.004Z,12.25
2023-01-21T14:22:08.853Z,13.20
2023-01-21T14:25:01.009Z,8.93
2023-01-21T14:27:41.662Z,12.63
2023-01-21T14:30:23.707Z,10.85
2023-01-21T14:33:02.970Z,14.13
2023-01-21T14:38:33.246Z,12.13
2023-01-21T14:41:06.177Z,14.93
2023-01-21T14:46:22.252Z,14.77
2023-01-21T14:48:58.373Z,11.60
2023-01-21T14:51:27.115Z,12.35
2023-01-21T14:54:00.466Z,12.18
2023-01-21T14:56:32.112Z,14.88
2023-01-21T14:59:05.163Z,11.00
2023-01-21T15:01:40.075Z,9.43
2023-01-21T15:04:27.155Z,12.73
2023-01-21T15:06:58.184Z,12.10
2023-01-21T15:09:43.601Z,10.65
2023-01-21T15:12:22.519Z,9.88
2023-01-21T15:14:50.399Z,15.57
2023-01-21T15:17:45.785Z,10.65
2023-01-21T15:20:34.430Z,12.75
2023-01-21T15:23:16.838Z,10.63
2023-01-21T15:26:09.039Z,11.02
2023-01-21T15:28:49.894Z,11.60
2023-01-21T15:31:25.678Z,12.05
2023-01-21T15:34:08.425Z,10.90
2023-01-21T15:36:47.072Z,15.90
2023-01-21T15:39:23.634Z,13.48
2023-01-21T15:42:05.336Z,12.50
2023-01-21T15:44:45.577Z,9.90
2023-01-21T15:47:39.913Z,11.57
2023-01-21T15:50:24.340Z,13.43
2023-01-21T15:52:53.810Z,12.45
2023-01-21T15:55:46.078Z,10.65
2023-01-21T15:58:24.981Z,11.98
2023-01-21T16:01:16.298Z,16.13
2023-01-21T16:04:14.751Z,13.05
2023-01-21T16:06:47.307Z,9.63
2023-01-21T16:09:30.581Z,12.00
2023-01-21T16:12:18.887Z,10.73
2023-01-21T16:14:52.912Z,13.32
2023-01-21T16:17:38.681Z,11.55
2023-01-21T16:20:07.912Z,10.80
2023-01-21T16:22:38.021Z,12.10
2023-01-21T16:25:08.912Z,13.40
2023-01-21T16:27:36.151Z,14.02
2023-01-21T16:30:08.104Z,10.68
2023-01-21T16:32:36.950Z,13.32
2023-01-21T16:35:03.992Z,13.85
2023-01-21T16:37:31.485Z,15.48
2023-01-21T16:40:25.414Z,16.17
2023-01-21T16:43:17.640Z,13.68
2023-01-21T16:45:56.608Z,16.33
2023-01-21T16:48:26.148Z,12.73
2023-01-21T16:50:53.430Z,14.45
2023-01-21T16:53:21.449Z,15.10
2023-01-21T16:55:51.121Z,16.25
2023-01-21T16:58:30.209Z,15.35
2023-01-21T17:01:12.292Z,17.35
2023-01-21T17:03:39.374Z,11.35
2023-01-21T17:06:30.876Z,10.77
2023-01-21T17:09:01.814Z,14.27
2023-01-21T17:11:29.025Z,16.88
2023-01-21T17:13:55.814Z,12.75
2023-01-21T17:16:28.582Z,16.52
2023-01-21T17:19:05.668Z,16.08
2023-01-21T17:21:40.239Z,14.93
2023-01-21T17:24:29.247Z,12.77
2023-01-21T17:27:16.073Z,13.95
2023-01-21T17:29:44.650Z,13.30
2023-01-21T17:32:33.705Z,12.15
2023-01-21T17:35:12.883Z,13.35
2023-01-21T17:37:51.909Z,15.60
2023-01-21T17:40:44.423Z,14.00
2023-01-21T17:43:23.178Z,13.50
2023-01-21T17:45:52.553Z,15.15
2023-01-21T17:48:27.607Z,14.52
2023-01-21T17:50:55.144Z,15.52
2023-01-21T17:53:26.164Z,14.02
2023-01-21T17:56:02.813Z,16.73
2023-01-21T17:58:32.572Z,15.82
2023-01-21T18:01:03.849Z,15.70
2023-01-21T18:03:30.484Z,14.98
2023-01-21T18:08:24.534Z,15.45
2023-01-21T18:10:51.247Z,13.18
2023-01-21T18:13:21.405Z,21.63
2023-01-21T18:15:51.400Z,17.35
2023-01-21T18:18:21.871Z,15.95
2023-01-21T18:20:48.642Z,15.05
2023-01-21T18:23:17.936Z,18.05
2023-01-21T18:25:52.131Z,14.23
2023-01-21T18:28:21.749Z,17.75
2023-01-21T18:30:49.623Z,18.77
2023-01-21T18:33:16.930Z,16.67
2023-01-21T18:35:46.051Z,14.90
2023-01-21T18:38:15.819Z,14.68
2023-01-21T18:40:42.527Z,15.55
2023-01-21T18:43:09.575Z,20.02
2023-01-21T18:45:36.608Z,16.38
2023-01-21T18:48:03.762Z,13.95
2023-01-21T18:50:30.759Z,17.67
2023-01-21T18:52:57.508Z,15.55
2023-01-21T18:57:55.985Z,17.25
2023-01-21T19:00:26.999Z,17.73
2023-01-21T19:02:55.667Z,16.60
2023-01-21T19:05:26.186Z,17.90
2023-01-21T19:07:52.900Z,19.45
2023-01-21T19:10:20.650Z,20.92
2023-01-21T19:12:47.791Z,18.92
2023-01-21T19:15:16.940Z,18.35
2023-01-21T19:17:44.153Z,20.05
2023-01-21T19:20:19.542Z,16.83
2023-01-21T19:22:47.598Z,16.75
2023-01-21T19:25:15.168Z,20.55
2023-01-21T19:27:43.906Z,19.38
2023-01-21T19:30:25.139Z,21.65
2023-01-21T19:32:53.723Z,16.35
2023-01-21T19:35:27.395Z,16.48
2023-01-21T19:37:54.483Z,19.25
2023-01-21T19:40:23.248Z,20.50
2023-01-21T19:42:50.620Z,21.00
2023-01-21T19:45:19.059Z,22.45
2023-01-21T19:47:49.889Z,17.45
2023-01-21T19:50:27.221Z,18.02
2023-01-21T19:52:54.959Z,17.52
2023-01-21T19:55:24.070Z,22.40
2023-01-21T19:58:29.478Z,18.33
2023-01-21T20:00:56.501Z,19.13
2023-01-21T20:03:25.717Z,19.05
2023-01-21T20:05:57.329Z,17.90
2023-01-21T20:08:28.139Z,15.73
2023-01-21T20:10:54.802Z,24.48
2023-01-21T20:13:21.927Z,23.63
2023-01-21T20:15:50.928Z,19.73
2023-01-21T20:18:24.655Z,17.20
2023-01-21T20:20:52.915Z,18.67
2023-01-21T20:23:23.183Z,20.77
2023-01-21T20:25:53.003Z,20.13
2023-01-21T20:28:24.493Z,18.33
2023-01-21T20:30:52.370Z,17.08
2023-01-21T20:33:21.433Z,23.30
2023-01-21T20:35:50.997Z,22.83
2023-01-21T20:38:23.986Z,19.85
2023-01-21T20:40:50.715Z,20.60
2023-01-21T20:43:20.027Z,19.35
2023-01-21T20:45:49.269Z,21.65
2023-01-21T20:48:24.962Z,17.40
2023-01-21T20:50:52.723Z,18.20
2023-01-21T20:53:20.056Z,20.88
2023-01-21T20:55:50.503Z,21.38
2023-01-21T20:58:19.014Z,20.08
2023-01-21T21:00:46.411Z,22.08
2023-01-21T21:03:18.008Z,19.85
2023-01-21T21:05:46.247Z,21.48
2023-01-21T21:08:19.140Z,19.38
2023-01-21T21:13:13.847Z,21.92
2023-01-21T21:15:41.954Z,21.52
2023-01-21T21:18:12.970Z,18.75
2023-01-21T21:20:40.156Z,17.00
2023-01-21T21:23:07.880Z,19.13
2023-01-21T21:25:40.400Z,21.85
2023-01-21T21:28:07.254Z,22.33
2023-01-21T21:30:34.499Z,18.73
2023-01-21T21:33:02.054Z,17.20
2023-01-21T21:35:35.165Z,19.92
2023-01-21T21:38:12.907Z,17.23
2023-01-21T21:40:39.699Z,18.65
2023-01-21T21:43:25.156Z,16.85
2023-01-21T21:46:10.571Z,21.88
2023-01-21T21:48:42.287Z,18.85
2023-01-21T21:51:11.385Z,15.95
2023-01-21T21:53:39.189Z,16.55
2023-01-21T21:56:19.169Z,16.17
2023-01-21T21:58:46.799Z,16.83
2023-01-21T22:01:20.730Z,16.25
2023-01-21T22:03:48.333Z,16.17
2023-01-21T22:06:17.957Z,16.83
2023-01-21T22:08:44.988Z,16.02
2023-01-21T22:11:22.336Z,17.65
2023-01-21T22:13:51.013Z,14.98
2023-01-21T22:16:23.823Z,12.90
2023-01-21T22:21:24.532Z,13.63
2023-01-21T22:23:51.720Z,14.63
2023-01-21T22:26:23.389Z,12.88
2023-01-21T22:28:53.662Z,14.00
2023-01-21T22:31:26.941Z,15.82
2023-01-21T22:33:54.519Z,11.35
2023-01-21T22:36:22.833Z,11.85
2023-01-21T22:38:50.237Z,13.10
2023-01-21T22:41:20.116Z,13.30
2023-01-21T22:43:48.460Z,13.60
2023-01-21T22:46:18.083Z,13.45
2023-01-21T22:48:46.066Z,11.85
2023-01-21T22:51:13.910Z,13.15
2023-01-21T22:53:40.830Z,12.23
2023-01-21T22:56:07.907Z,11.80
2023-01-21T22:58:35.439Z,9.18
2023-01-21T23:01:02.396Z,11.88
2023-01-21T23:03:29.728Z,14.18
2023-01-21T23:06:06.419Z,14.73
2023-01-21T23:08:33.456Z,13.93
2023-01-21T23:11:01.887Z,13.15
2023-01-21T23:13:28.675Z,12.10
2023-01-21T23:15:55.997Z,12.93
2023-01-21T23:18:23.104Z,14.02
2023-01-21T23:20:49.861Z,15.57
2023-01-21T23:23:16.997Z,16.30
2023-01-21T23:25:44.908Z,13.00
2023-01-21T23:28:12.380Z,12.85
2023-01-21T23:30:39.451Z,11.20
2023-01-21T23:33:06.401Z,14.40
2023-01-21T23:35:34.594Z,13.45
2023-01-21T23:38:02.952Z,12.05
2023-01-21T23:40:29.663Z,13.82
2023-01-21T23:42:56.304Z,14.82
2023-01-21T23:45:23.074Z,10.15
2023-01-21T23:47:49.665Z,9.35
2023-01-21T23:52:43.527Z,10.68
2023-01-21T23:55:11.043Z,10.48
2023-01-21T23:57:37.750Z,9.95
